createdAt,value
2023-08-25T00:00:33.310Z,20.40
2023-08-25T00:01:35.477Z,20.40
2023-08-25T00:02:38.641Z,20.50
2023-08-25T00:03:40.693Z,20.50
2023-08-25T00:04:43.626Z,20.50
2023-08-25T00:05:45.461Z,20.40
2023-08-25T00:06:48.258Z,20.50
2023-08-25T00:07:50.607Z,20.50
2023-08-25T00:08:53.925Z,20.50
2023-08-25T00:09:55.820Z,20.50
2023-08-25T00:11:00.041Z,20.50
2023-08-25T00:12:01.952Z,20.40
2023-08-25T00:13:05.163Z,20.50
2023-08-25T00:14:07.083Z,20.40
2023-08-25T00:15:11.287Z,20.50
2023-08-25T00:16:13.363Z,20.40
2023-08-25T00:17:16.580Z,20.50
2023-08-25T00:18:18.529Z,20.40
2023-08-25T00:19:21.459Z,20.50
2023-08-25T00:20:24.508Z,20.40
2023-08-25T00:21:27.333Z,20.40
2023-08-25T00:22:29.482Z,20.50
2023-08-25T00:23:32.862Z,20.40
2023-08-25T00:24:34.738Z,20.50
2023-08-25T00:25:37.581Z,20.50
2023-08-25T00:26:40.966Z,20.40
2023-08-25T00:27:42.849Z,20.50
2023-08-25T00:28:45.752Z,20.40
2023-08-25T00:29:47.719Z,20.40
2023-08-25T00:30:49.944Z,20.40
2023-08-25T00:31:53.471Z,20.50
2023-08-25T00:32:55.568Z,20.40
2023-08-25T00:33:58.922Z,20.50
2023-08-25T00:35:01.788Z,20.40
2023-08-25T00:36:03.816Z,20.40
2023-08-25T00:37:06.743Z,20.40
2023-08-25T00:38:08.732Z,20.50
2023-08-25T00:39:12.034Z,20.40
2023-08-25T00:40:13.898Z,20.40
2023-08-25T00:41:16.752Z,20.40
2023-08-25T00:42:19.924Z,20.40
2023-08-25T00:43:22.799Z,20.50
2023-08-25T00:44:24.703Z,20.40
2023-08-25T00:45:28.054Z,20.40
2023-08-25T00:46:30.203Z,20.40
2023-08-25T00:47:33.251Z,20.40
2023-08-25T00:48:35.375Z,20.30
2023-08-25T00:49:39.117Z,20.30
2023-08-25T00:50:42.358Z,20.40
2023-08-25T00:51:46.120Z,20.40
2023-08-25T00:52:47.991Z,20.40
2023-08-25T00:53:51.510Z,20.40
2023-08-25T00:54:56.197Z,20.40
2023-08-25T00:55:59.789Z,20.40
2023-08-25T00:57:03.642Z,20.40
2023-08-25T00:58:09.368Z,20.40
2023-08-25T00:59:11.344Z,20.40
2023-08-25T01:00:14.383Z,20.40
2023-08-25T01:01:18.305Z,20.40
2023-08-25T01:02:20.655Z,20.40
2023-08-25T01:03:23.877Z,20.40
2023-08-25T01:04:25.783Z,20.40
2023-08-25T01:05:28.834Z,20.40
2023-08-25T01:06:30.707Z,20.40
2023-08-25T01:07:33.741Z,20.40
2023-08-25T01:08:36.349Z,20.40
2023-08-25T01:09:39.241Z,20.40
2023-08-25T01:10:51.424Z,20.40
2023-08-25T01:12:02.384Z,20.30
2023-08-25T01:13:11.846Z,20.40
2023-08-25T01:14:21.480Z,20.40
2023-08-25T01:15:29.685Z,20.30
2023-08-25T01:16:38.584Z,20.30
2023-08-25T01:17:45.875Z,20.30
2023-08-25T01:18:48.750Z,20.30
2023-08-25T01:19:57.650Z,20.30
2023-08-25T01:21:01.176Z,20.30
2023-08-25T01:22:07.491Z,20.30
2023-08-25T01:23:18.047Z,20.30
2023-08-25T01:24:24.139Z,20.30
2023-08-25T01:25:29.739Z,20.30
2023-08-25T01:26:31.994Z,20.20
2023-08-25T01:27:35.736Z,20.30
2023-08-25T01:28:40.445Z,20.30
2023-08-25T01:29:44.842Z,20.30
2023-08-25T01:30:46.831Z,20.30
2023-08-25T01:31:49.699Z,20.20
2023-08-25T01:32:52.512Z,20.20
2023-08-25T01:33:56.352Z,20.30
2023-08-25T01:34:58.467Z,20.20
2023-08-25T01:36:11.386Z,20.20
2023-08-25T01:37:18.636Z,20.20
2023-08-25T01:38:29.853Z,20.30
2023-08-25T01:39:34.886Z,20.30
2023-08-25T01:40:45.356Z,20.30
2023-08-25T01:41:50.038Z,20.30
2023-08-25T01:42:56.356Z,20.30
2023-08-25T01:44:02.237Z,20.30
2023-08-25T01:45:06.770Z,20.20
2023-08-25T01:46:10.710Z,20.20
2023-08-25T01:47:16.617Z,20.30
2023-08-25T01:48:20.658Z,20.30
2023-08-25T01:49:24.320Z,20.30
2023-08-25T01:50:26.344Z,20.30
2023-08-25T01:51:30.607Z,20.20
2023-08-25T01:52:32.997Z,20.20
2023-08-25T01:53:35.988Z,20.20
2023-08-25T01:54:38.654Z,20.20
2023-08-25T01:55:42.795Z,20.20
2023-08-25T01:56:44.701Z,20.20
2023-08-25T01:57:47.559Z,20.30
2023-08-25T01:58:49.752Z,20.20
2023-08-25T01:59:52.696Z,20.30
2023-08-25T02:00:54.559Z,20.20
2023-08-25T02:01:57.451Z,20.20
2023-08-25T02:03:00.581Z,20.30
2023-08-25T02:04:03.478Z,20.30
2023-08-25T02:05:06.417Z,20.30
2023-08-25T02:06:10.917Z,20.30
2023-08-25T02:07:12.868Z,20.20
2023-08-25T02:08:15.767Z,20.20
2023-08-25T02:09:17.582Z,20.30
2023-08-25T02:10:20.447Z,20.30
2023-08-25T02:11:23.727Z,20.20
2023-08-25T02:12:26.543Z,20.30
2023-08-25T02:13:28.424Z,20.20
2023-08-25T02:14:31.230Z,20.20
2023-08-25T02:15:33.186Z,20.20
2023-08-25T02:16:36.208Z,20.20
2023-08-25T02:17:38.189Z,20.10
2023-08-25T02:18:41.735Z,20.10
2023-08-25T02:19:43.564Z,20.20
2023-08-25T02:20:46.379Z,20.10
2023-08-25T02:21:48.261Z,20.20
2023-08-25T02:22:51.102Z,20.20
2023-08-25T02:23:52.933Z,20.20
2023-08-25T02:24:54.825Z,20.20
2023-08-25T02:25:57.742Z,20.20
2023-08-25T02:27:00.972Z,20.20
2023-08-25T02:28:03.949Z,20.20
2023-08-25T02:29:07.497Z,20.20
2023-08-25T02:30:11.491Z,20.20
2023-08-25T02:31:13.439Z,20.20
2023-08-25T02:32:16.373Z,20.20
2023-08-25T02:33:18.298Z,20.30
2023-08-25T02:34:21.399Z,21.30
2023-08-25T02:35:23.286Z,20.20
2023-08-25T02:36:26.148Z,20.20
2023-08-25T02:37:28.085Z,20.20
2023-08-25T02:38:30.908Z,20.30
2023-08-25T02:39:32.855Z,20.20
2023-08-25T02:40:36.716Z,20.20
2023-08-25T02:41:38.545Z,20.20
2023-08-25T02:42:42.714Z,20.20
2023-08-25T02:43:44.556Z,20.20
2023-08-25T02:44:47.462Z,20.20
2023-08-25T02:45:49.492Z,20.20
2023-08-25T02:46:52.925Z,20.20
2023-08-25T02:47:56.083Z,20.20
2023-08-25T02:48:59.467Z,20.20
2023-08-25T02:50:01.344Z,20.10
2023-08-25T02:51:03.231Z,20.20
2023-08-25T02:52:06.742Z,20.20
2023-08-25T02:53:08.665Z,20.20
2023-08-25T02:54:11.560Z,20.20
2023-08-25T02:55:15.526Z,20.20
2023-08-25T02:56:18.345Z,20.20
2023-08-25T02:57:20.228Z,20.20
2023-08-25T02:58:24.458Z,20.20
2023-08-25T02:59:26.412Z,20.20
2023-08-25T03:00:29.396Z,20.20
2023-08-25T03:01:31.316Z,20.20
2023-08-25T03:02:34.204Z,20.20
2023-08-25T03:03:36.104Z,20.30
2023-08-25T03:04:39.006Z,20.20
2023-08-25T03:05:40.933Z,20.20
2023-08-25T03:06:43.932Z,20.20
2023-08-25T03:07:45.778Z,20.20
2023-08-25T03:08:48.748Z,20.20
2023-08-25T03:09:50.591Z,20.30
2023-08-25T03:10:54.715Z,20.20
2023-08-25T03:11:56.686Z,20.20
2023-08-25T03:12:59.539Z,20.20
2023-08-25T03:14:02.753Z,20.20
2023-08-25T03:15:06.379Z,20.20
2023-08-25T03:16:08.543Z,20.20
2023-08-25T03:17:11.511Z,20.20
2023-08-25T03:18:13.338Z,20.20
2023-08-25T03:19:16.234Z,20.20
2023-08-25T03:20:18.410Z,20.20
2023-08-25T03:21:21.271Z,20.20
2023-08-25T03:22:23.247Z,20.20
2023-08-25T03:23:25.105Z,20.20
2023-08-25T03:24:27.922Z,20.20
2023-08-25T03:25:29.834Z,20.20
2023-08-25T03:26:32.646Z,20.30
2023-08-25T03:27:35.867Z,20.30
2023-08-25T03:28:38.836Z,20.20
2023-08-25T03:29:44.207Z,20.20
2023-08-25T03:30:47.053Z,20.20
2023-08-25T03:31:48.889Z,20.20
2023-08-25T03:32:51.728Z,20.20
2023-08-25T03:33:53.697Z,20.20
2023-08-25T03:34:55.592Z,20.20
2023-08-25T03:35:58.489Z,20.30
2023-08-25T03:37:00.323Z,20.20
2023-08-25T03:38:03.343Z,20.20
2023-08-25T03:39:06.178Z,20.20
2023-08-25T03:40:11.350Z,20.20
2023-08-25T03:41:13.278Z,20.20
2023-08-25T03:42:16.146Z,20.20
2023-08-25T03:43:18.326Z,20.30
2023-08-25T03:44:21.316Z,20.30
2023-08-25T03:45:24.624Z,20.20
2023-08-25T03:46:27.788Z,20.20
2023-08-25T03:47:29.683Z,20.20
2023-08-25T03:48:32.527Z,20.20
2023-08-25T03:49:35.451Z,20.20
2023-08-25T03:50:38.317Z,19.80
2023-08-25T03:51:40.229Z,19.50
2023-08-25T03:52:43.125Z,19.40
2023-08-25T03:53:45.012Z,19.30
2023-08-25T03:54:47.819Z,19.10
2023-08-25T03:55:49.689Z,19.10
2023-08-25T03:56:52.556Z,19.00
2023-08-25T03:57:54.694Z,19.00
2023-08-25T03:58:57.769Z,18.90
2023-08-25T03:59:59.636Z,18.90
2023-08-25T04:01:04.298Z,18.80
2023-08-25T04:02:06.263Z,18.90
2023-08-25T04:03:09.292Z,18.70
2023-08-25T04:04:11.281Z,18.70
2023-08-25T04:05:14.084Z,18.70
2023-08-25T04:06:16.062Z,18.80
2023-08-25T04:07:18.872Z,18.70
2023-08-25T04:08:20.956Z,18.70
2023-08-25T04:09:23.767Z,18.70
2023-08-25T04:10:26.865Z,18.70
2023-08-25T04:11:29.737Z,18.70
2023-08-25T04:12:31.592Z,18.70
2023-08-25T04:13:34.557Z,18.70
2023-08-25T04:14:36.545Z,18.70
2023-08-25T04:15:39.369Z,18.70
2023-08-25T04:16:42.709Z,18.70
2023-08-25T04:17:45.680Z,18.70
2023-08-25T04:18:47.612Z,18.70
2023-08-25T04:19:50.685Z,18.70
2023-08-25T04:20:53.028Z,18.70
2023-08-25T04:21:55.887Z,18.70
2023-08-25T04:22:57.755Z,18.60
2023-08-25T04:24:00.679Z,18.60
2023-08-25T04:25:02.604Z,18.60
2023-08-25T04:26:05.420Z,18.70
2023-08-25T04:27:07.988Z,18.60
2023-08-25T04:28:10.828Z,18.70
2023-08-25T04:29:12.712Z,18.60
2023-08-25T04:30:15.539Z,18.70
2023-08-25T04:31:17.433Z,18.70
2023-08-25T04:32:21.712Z,18.70
2023-08-25T04:33:23.659Z,18.60
2023-08-25T04:34:26.506Z,18.70
2023-08-25T04:35:28.379Z,18.70
2023-08-25T04:36:31.172Z,18.60
2023-08-25T04:37:33.075Z,18.80
2023-08-25T04:38:35.876Z,18.70
2023-08-25T04:39:37.990Z,18.70
2023-08-25T04:40:40.841Z,18.70
2023-08-25T04:41:43.204Z,18.70
2023-08-25T04:42:46.601Z,18.60
2023-08-25T04:43:48.679Z,18.60
2023-08-25T04:44:51.549Z,18.70
2023-08-25T04:45:53.428Z,18.70
2023-08-25T04:46:56.282Z,18.70
2023-08-25T04:47:59.729Z,18.70
2023-08-25T04:49:03.805Z,18.70
2023-08-25T04:50:08.705Z,18.70
2023-08-25T04:51:11.600Z,18.70
2023-08-25T04:52:13.513Z,18.70
2023-08-25T04:53:16.365Z,18.70
2023-08-25T04:54:18.911Z,18.70
2023-08-25T04:55:21.752Z,18.70
2023-08-25T04:56:24.401Z,18.70
2023-08-25T04:57:27.270Z,18.70
2023-08-25T04:58:29.229Z,18.70
2023-08-25T04:59:32.104Z,18.70
2023-08-25T05:00:34.119Z,18.70
2023-08-25T05:01:37.084Z,18.60
2023-08-25T05:02:39.078Z,18.70
2023-08-25T05:03:43.858Z,18.70
2023-08-25T05:04:45.886Z,18.70
2023-08-25T05:05:49.551Z,18.70
2023-08-25T05:06:53.267Z,18.70
2023-08-25T05:07:56.433Z,18.70
2023-08-25T05:08:58.464Z,18.70
2023-08-25T05:10:01.688Z,18.70
2023-08-25T05:11:04.329Z,18.60
2023-08-25T05:12:07.915Z,18.60
2023-08-25T05:13:09.835Z,18.60
2023-08-25T05:14:13.054Z,18.60
2023-08-25T05:15:14.974Z,18.60
2023-08-25T05:16:19.783Z,18.70
2023-08-25T05:17:21.716Z,18.70
2023-08-25T05:18:25.834Z,18.70
2023-08-25T05:19:29.121Z,18.80
2023-08-25T05:20:31.947Z,18.70
2023-08-25T05:21:33.838Z,18.80
2023-08-25T05:22:37.494Z,18.70
2023-08-25T05:23:44.250Z,18.80
2023-08-25T05:24:47.322Z,18.90
2023-08-25T05:25:49.167Z,18.90
2023-08-25T05:26:53.404Z,18.90
2023-08-25T05:27:55.534Z,19.00
2023-08-25T05:28:58.716Z,18.90
2023-08-25T05:30:00.819Z,19.00
2023-08-25T05:31:03.802Z,19.00
2023-08-25T05:32:05.867Z,18.90
2023-08-25T05:33:08.767Z,19.00
2023-08-25T05:34:10.637Z,19.00
2023-08-25T05:35:14.934Z,19.00
2023-08-25T05:36:16.779Z,19.00
2023-08-25T05:37:19.591Z,19.00
2023-08-25T05:38:21.468Z,18.90
2023-08-25T05:39:24.274Z,18.90
2023-08-25T05:40:26.181Z,18.90
2023-08-25T05:41:30.155Z,18.90
2023-08-25T05:42:33.134Z,18.80
2023-08-25T05:43:35.928Z,18.90
2023-08-25T05:44:37.819Z,18.90
2023-08-25T05:45:40.652Z,18.90
2023-08-25T05:46:42.512Z,18.90
2023-08-25T05:47:45.462Z,18.90
2023-08-25T05:48:47.379Z,18.90
2023-08-25T05:49:50.246Z,19.00
2023-08-25T05:50:53.462Z,18.90
2023-08-25T05:51:56.862Z,19.00
2023-08-25T05:52:58.811Z,19.00
2023-08-25T05:54:01.944Z,18.90
2023-08-25T05:55:04.203Z,19.00
2023-08-25T05:56:07.062Z,19.00
2023-08-25T05:57:09.199Z,19.00
2023-08-25T05:58:12.973Z,19.00
2023-08-25T05:59:14.875Z,19.00
2023-08-25T06:00:19.218Z,19.00
2023-08-25T06:01:21.610Z,19.00
2023-08-25T06:02:24.561Z,18.90
2023-08-25T06:03:26.754Z,18.90
2023-08-25T06:04:30.168Z,18.90
2023-08-25T06:05:32.051Z,19.00
2023-08-25T06:06:37.246Z,19.00
2023-08-25T06:07:39.160Z,19.00
2023-08-25T06:08:42.060Z,19.00
2023-08-25T06:09:43.939Z,19.00
2023-08-25T06:10:46.796Z,19.00
2023-08-25T06:11:48.646Z,19.10
2023-08-25T06:12:51.448Z,19.00
2023-08-25T06:13:53.337Z,19.10
2023-08-25T06:14:55.204Z,19.10
2023-08-25T06:15:58.103Z,19.00
2023-08-25T06:17:01.574Z,19.00
2023-08-25T06:18:04.793Z,19.10
2023-08-25T06:19:06.985Z,19.10
2023-08-25T06:20:13.187Z,19.10
2023-08-25T06:21:15.072Z,19.20
2023-08-25T06:22:19.252Z,19.20
2023-08-25T06:23:21.222Z,19.10
2023-08-25T06:24:25.962Z,19.10
2023-08-25T06:25:28.173Z,19.20
2023-08-25T06:26:31.156Z,19.10
2023-08-25T06:27:33.088Z,19.10
2023-08-25T06:28:35.974Z,19.10
2023-08-25T06:29:37.833Z,19.20
2023-08-25T06:30:42.828Z,19.10
2023-08-25T06:31:44.753Z,19.20
2023-08-25T06:32:47.618Z,19.20
2023-08-25T06:33:49.561Z,19.20
2023-08-25T06:34:54.456Z,19.30
2023-08-25T06:35:56.385Z,19.30
2023-08-25T06:36:59.278Z,19.20
2023-08-25T06:38:04.832Z,19.20
2023-08-25T06:39:09.502Z,19.20
2023-08-25T06:40:12.021Z,19.20
2023-08-25T06:41:14.817Z,19.30
2023-08-25T06:42:17.858Z,19.30
2023-08-25T06:43:20.722Z,19.30
2023-08-25T06:44:23.738Z,19.30
2023-08-25T06:45:26.629Z,19.30
2023-08-25T06:46:28.515Z,19.40
2023-08-25T06:47:31.497Z,19.40
2023-08-25T06:48:33.398Z,19.40
2023-08-25T06:49:36.261Z,19.50
2023-08-25T06:50:38.175Z,19.50
2023-08-25T06:51:41.108Z,19.50
2023-08-25T06:52:43.256Z,19.50
2023-08-25T06:53:47.500Z,19.50
2023-08-25T06:54:49.545Z,19.50
2023-08-25T06:55:52.460Z,19.60
2023-08-25T06:56:54.356Z,19.60
2023-08-25T06:57:57.257Z,19.70
2023-08-25T06:58:59.120Z,19.80
2023-08-25T07:00:01.995Z,19.80
2023-08-25T07:01:03.936Z,19.90
2023-08-25T07:02:06.853Z,20.00
2023-08-25T07:03:09.188Z,20.00
2023-08-25T07:04:12.352Z,20.10
2023-08-25T07:05:14.613Z,20.10
2023-08-25T07:06:17.494Z,20.10
2023-08-25T07:07:26.629Z,20.10
2023-08-25T07:08:29.674Z,20.20
2023-08-25T07:09:32.982Z,20.20
2023-08-25T07:10:37.068Z,20.20
2023-08-25T07:11:38.968Z,20.30
2023-08-25T07:12:41.884Z,20.30
2023-08-25T07:13:43.777Z,20.30
2023-08-25T07:14:48.136Z,20.30
2023-08-25T07:15:51.061Z,20.30
2023-08-25T07:16:53.876Z,20.30
2023-08-25T07:17:56.110Z,20.40
2023-08-25T07:18:59.317Z,20.40
2023-08-25T07:20:01.242Z,20.50
2023-08-25T07:21:05.371Z,20.50
2023-08-25T07:22:07.299Z,20.50
2023-08-25T07:23:10.164Z,20.50
2023-08-25T07:24:12.127Z,20.60
2023-08-25T07:25:16.510Z,20.60
2023-08-25T07:26:18.463Z,20.60
2023-08-25T07:27:21.531Z,20.60
2023-08-25T07:28:23.416Z,20.60
2023-08-25T07:29:26.804Z,20.60
2023-08-25T07:30:28.733Z,20.60
2023-08-25T07:31:32.143Z,20.60
2023-08-25T07:32:34.177Z,20.70
2023-08-25T07:33:37.202Z,20.70
2023-08-25T07:34:39.145Z,20.70
2023-08-25T07:35:42.253Z,20.70
2023-08-25T07:36:44.295Z,20.70
2023-08-25T07:37:47.189Z,20.70
2023-08-25T07:38:49.183Z,20.60
2023-08-25T07:39:52.902Z,20.70
2023-08-25T07:40:56.600Z,20.70
2023-08-25T07:41:59.572Z,20.70
2023-08-25T07:43:02.540Z,20.80
2023-08-25T07:44:04.722Z,20.90
2023-08-25T07:45:08.826Z,20.90
2023-08-25T07:46:10.761Z,21.00
2023-08-25T07:47:13.993Z,21.00
2023-08-25T07:48:15.888Z,20.90
2023-08-25T07:49:18.845Z,20.90
2023-08-25T07:50:20.806Z,20.80
2023-08-25T07:51:34.446Z,20.90
2023-08-25T07:52:42.734Z,20.90
2023-08-25T07:53:45.569Z,21.20
2023-08-25T07:54:47.442Z,21.20
2023-08-25T07:55:50.484Z,21.20
2023-08-25T07:56:53.953Z,21.20
2023-08-25T07:57:57.275Z,21.10
2023-08-25T07:58:59.525Z,21.20
2023-08-25T08:00:02.330Z,21.20
2023-08-25T08:01:04.366Z,21.10
2023-08-25T08:02:07.824Z,21.00
2023-08-25T08:03:10.387Z,21.10
2023-08-25T08:04:12.676Z,21.10
2023-08-25T08:05:16.948Z,21.10
2023-08-25T08:06:18.837Z,21.10
2023-08-25T08:07:21.681Z,21.10
2023-08-25T08:08:23.618Z,21.10
2023-08-25T08:09:27.208Z,21.20
2023-08-25T08:10:30.495Z,21.40
2023-08-25T08:11:33.311Z,21.30
2023-08-25T08:12:36.600Z,21.20
2023-08-25T08:13:40.413Z,21.20
2023-08-25T08:14:46.375Z,21.40
2023-08-25T08:15:49.753Z,21.50
2023-08-25T08:16:52.320Z,21.30
2023-08-25T08:17:55.483Z,21.30
2023-08-25T08:18:57.749Z,21.20
2023-08-25T08:20:01.422Z,21.80
2023-08-25T08:21:03.510Z,21.70
2023-08-25T08:22:06.617Z,21.70
2023-08-25T08:23:10.654Z,21.50
2023-08-25T08:24:14.504Z,21.40
2023-08-25T08:25:16.747Z,21.30
2023-08-25T08:26:19.580Z,21.30
2023-08-25T08:27:21.524Z,21.50
2023-08-25T08:28:25.708Z,21.40
2023-08-25T08:29:28.177Z,21.30
2023-08-25T08:30:31.040Z,21.20
2023-08-25T08:31:33.077Z,21.20
2023-08-25T08:32:37.153Z,21.20
2023-08-25T08:33:40.008Z,20.60
2023-08-25T08:34:42.979Z,21.20
2023-08-25T08:35:45.168Z,21.30
2023-08-25T08:36:48.247Z,21.10
2023-08-25T08:37:50.147Z,21.30
2023-08-25T08:38:53.756Z,21.50
2023-08-25T08:39:55.644Z,21.50
2023-08-25T08:41:02.701Z,21.60
2023-08-25T08:42:06.752Z,21.50
2023-08-25T08:43:11.784Z,21.50
2023-08-25T08:44:19.270Z,21.60
2023-08-25T08:45:25.322Z,21.40
2023-08-25T08:46:29.241Z,21.40
2023-08-25T08:47:33.264Z,21.30
2023-08-25T08:48:36.475Z,21.30
2023-08-25T08:49:40.402Z,21.30
2023-08-25T08:50:45.477Z,21.40
2023-08-25T08:51:51.026Z,21.40
2023-08-25T08:52:53.826Z,21.40
2023-08-25T08:53:57.390Z,21.20
2023-08-25T08:55:01.049Z,21.30
2023-08-25T08:56:04.671Z,21.20
2023-08-25T08:57:07.326Z,21.20
2023-08-25T08:58:10.208Z,21.20
2023-08-25T08:59:12.106Z,21.20
2023-08-25T09:00:19.899Z,21.30
2023-08-25T09:01:22.191Z,21.20
2023-08-25T09:02:28.103Z,21.50
2023-08-25T09:03:34.372Z,21.50
2023-08-25T09:04:39.929Z,21.60
2023-08-25T09:05:43.732Z,21.40
2023-08-25T09:06:50.583Z,21.40
2023-08-25T09:07:58.232Z,21.60
2023-08-25T09:09:05.660Z,21.90
2023-08-25T09:10:09.193Z,21.80
2023-08-25T09:11:12.246Z,21.60
2023-08-25T09:12:16.679Z,21.50
2023-08-25T09:13:20.924Z,21.40
2023-08-25T09:14:27.200Z,21.40
2023-08-25T09:15:34.786Z,21.40
2023-08-25T09:16:37.378Z,21.60
2023-08-25T09:17:41.054Z,21.70
2023-08-25T09:18:43.029Z,21.60
2023-08-25T09:19:46.029Z,21.60
2023-08-25T09:20:47.997Z,21.90
2023-08-25T09:21:51.187Z,22.00
2023-08-25T09:22:56.446Z,21.90
2023-08-25T09:24:00.059Z,21.60
2023-08-25T09:25:02.962Z,21.60
2023-08-25T09:26:05.350Z,22.10
2023-08-25T09:27:08.297Z,22.10
2023-08-25T09:28:10.658Z,22.20
2023-08-25T09:29:13.814Z,22.10
2023-08-25T09:30:15.703Z,21.90
2023-08-25T09:31:28.605Z,22.40
2023-08-25T09:32:30.516Z,22.30
2023-08-25T09:33:33.816Z,22.30
2023-08-25T09:34:35.710Z,22.40
2023-08-25T09:35:38.969Z,22.30
2023-08-25T09:36:52.430Z,22.10
2023-08-25T09:37:55.433Z,22.30
2023-08-25T09:39:00.926Z,22.40
2023-08-25T09:40:08.266Z,22.70
2023-08-25T09:41:11.189Z,22.80
2023-08-25T09:42:14.553Z,22.80
2023-08-25T09:43:16.446Z,22.60
2023-08-25T09:44:19.550Z,22.40
2023-08-25T09:45:21.643Z,22.70
2023-08-25T09:46:30.196Z,22.80
2023-08-25T09:47:32.907Z,22.80
2023-08-25T09:48:36.845Z,22.60
2023-08-25T09:49:39.602Z,22.40
2023-08-25T09:50:44.352Z,22.20
2023-08-25T09:51:48.465Z,22.60
2023-08-25T09:52:54.736Z,22.60
2023-08-25T09:53:57.395Z,22.10
2023-08-25T09:55:00.713Z,21.90
2023-08-25T09:56:06.513Z,22.30
2023-08-25T09:57:09.438Z,22.10
2023-08-25T09:58:13.117Z,21.90
2023-08-25T09:59:17.249Z,22.00
2023-08-25T10:00:20.589Z,21.70
2023-08-25T10:01:23.941Z,21.90
2023-08-25T10:02:28.780Z,21.70
2023-08-25T10:03:31.159Z,21.70
2023-08-25T10:04:34.438Z,21.60
2023-08-25T10:05:37.754Z,21.50
2023-08-25T10:06:41.781Z,21.40
2023-08-25T10:07:44.448Z,21.40
2023-08-25T10:08:47.222Z,21.40
2023-08-25T10:09:50.828Z,21.40
2023-08-25T10:10:53.019Z,21.50
2023-08-25T10:11:58.762Z,21.50
2023-08-25T10:13:04.135Z,21.50
2023-08-25T10:14:09.215Z,21.40
2023-08-25T10:15:13.620Z,21.40
2023-08-25T10:16:17.944Z,21.40
2023-08-25T10:17:21.019Z,21.40
2023-08-25T10:18:26.926Z,21.40
2023-08-25T10:19:32.036Z,21.40
2023-08-25T10:20:37.336Z,21.50
2023-08-25T10:21:40.301Z,21.60
2023-08-25T10:22:46.659Z,21.40
2023-08-25T10:23:53.691Z,21.50
2023-08-25T10:25:01.226Z,21.50
2023-08-25T10:26:05.241Z,21.50
2023-08-25T10:27:10.675Z,21.40
2023-08-25T10:28:13.670Z,21.40
2023-08-25T10:29:18.114Z,21.40
2023-08-25T10:30:22.627Z,21.40
2023-08-25T10:31:26.334Z,21.40
2023-08-25T10:32:51.130Z,21.40
2023-08-25T10:33:54.470Z,21.40
2023-08-25T10:34:57.720Z,21.50
2023-08-25T10:36:05.949Z,21.50
2023-08-25T10:37:11.131Z,21.50
2023-08-25T10:38:35.742Z,21.40
2023-08-25T10:39:49.764Z,21.40
2023-08-25T10:40:52.815Z,21.40
2023-08-25T10:41:59.960Z,21.30
2023-08-25T10:43:05.908Z,21.30
2023-08-25T10:44:11.893Z,21.30
2023-08-25T10:45:13.761Z,21.30
2023-08-25T10:46:21.532Z,21.30
2023-08-25T10:47:29.114Z,21.40
2023-08-25T10:48:37.005Z,21.50
2023-08-25T10:49:40.979Z,21.70
2023-08-25T10:50:43.887Z,22.00
2023-08-25T10:51:45.838Z,22.20
2023-08-25T10:52:52.442Z,22.00
2023-08-25T10:53:55.324Z,21.80
2023-08-25T10:54:58.173Z,21.80
2023-08-25T10:56:13.366Z,22.10
2023-08-25T10:57:40.640Z,22.00
2023-08-25T10:58:43.167Z,21.80
2023-08-25T10:59:51.831Z,21.90
2023-08-25T11:01:02.339Z,22.20
2023-08-25T11:02:05.373Z,22.20
2023-08-25T11:03:07.595Z,22.00
2023-08-25T11:04:12.766Z,22.00
2023-08-25T11:05:43.244Z,22.00
2023-08-25T11:06:47.987Z,21.70
2023-08-25T11:07:49.901Z,21.70
2023-08-25T11:08:57.627Z,21.70
2023-08-25T11:10:13.677Z,21.60
2023-08-25T11:11:16.703Z,21.60
2023-08-25T11:12:24.185Z,21.70
2023-08-25T11:13:26.106Z,21.70
2023-08-25T11:14:30.298Z,21.70
2023-08-25T11:15:35.655Z,21.60
2023-08-25T11:16:40.934Z,21.50
2023-08-25T11:17:42.834Z,21.50
2023-08-25T11:18:46.809Z,21.50
2023-08-25T11:19:49.321Z,21.50
2023-08-25T11:20:53.500Z,21.60
2023-08-25T11:22:01.183Z,21.60
2023-08-25T11:23:18.245Z,21.50
2023-08-25T11:24:24.543Z,21.50
2023-08-25T11:25:26.842Z,21.50
2023-08-25T11:26:33.942Z,21.40
2023-08-25T11:27:35.831Z,21.50
2023-08-25T11:28:40.204Z,21.60
2023-08-25T11:29:45.781Z,21.50
2023-08-25T11:30:49.031Z,21.60
2023-08-25T11:31:51.064Z,21.60
2023-08-25T11:32:53.946Z,21.50
2023-08-25T11:33:56.241Z,21.50
2023-08-25T11:34:59.109Z,21.60
2023-08-25T11:36:04.565Z,21.60
2023-08-25T11:37:07.878Z,21.60
2023-08-25T11:38:09.742Z,21.60
2023-08-25T11:39:20.100Z,21.60
2023-08-25T11:40:22.155Z,21.50
2023-08-25T11:41:25.204Z,21.60
2023-08-25T11:42:29.176Z,21.60
2023-08-25T11:43:33.822Z,21.60
2023-08-25T11:44:40.721Z,21.60
2023-08-25T11:45:46.511Z,21.60
2023-08-25T11:46:48.456Z,21.60
2023-08-25T11:47:51.582Z,21.50
2023-08-25T11:48:56.272Z,21.50
2023-08-25T11:49:59.461Z,21.50
2023-08-25T11:51:03.407Z,21.50
2023-08-25T11:52:07.928Z,21.60
2023-08-25T11:53:15.433Z,21.50
2023-08-25T11:54:18.722Z,21.50
2023-08-25T11:55:21.092Z,21.50
2023-08-25T11:56:23.942Z,21.50
2023-08-25T11:57:34.801Z,21.50
2023-08-25T11:58:38.246Z,21.50
2023-08-25T11:59:42.194Z,21.50
2023-08-25T12:00:44.130Z,21.60
2023-08-25T12:01:48.546Z,21.60
2023-08-25T12:02:57.967Z,21.60
2023-08-25T12:04:01.233Z,21.60
2023-08-25T12:05:04.977Z,21.60
2023-08-25T12:06:10.692Z,21.70
2023-08-25T12:07:12.669Z,21.70
2023-08-25T12:08:18.533Z,21.80
2023-08-25T12:09:23.076Z,21.80
2023-08-25T12:10:25.976Z,21.80
2023-08-25T12:11:29.904Z,21.80
2023-08-25T12:12:34.267Z,21.80
2023-08-25T12:13:38.759Z,21.80
2023-08-25T12:14:42.305Z,21.80
2023-08-25T12:15:46.522Z,21.80
2023-08-25T12:16:49.380Z,21.90
2023-08-25T12:17:52.718Z,21.80
2023-08-25T12:18:55.884Z,21.80
2023-08-25T12:19:58.220Z,21.90
2023-08-25T12:21:02.872Z,21.90
2023-08-25T12:22:06.073Z,21.90
2023-08-25T12:23:08.937Z,21.90
2023-08-25T12:24:10.835Z,21.80
2023-08-25T12:25:13.785Z,22.20
2023-08-25T12:26:15.795Z,22.10
2023-08-25T12:27:20.442Z,23.40
2023-08-25T12:28:22.510Z,24.00
2023-08-25T12:29:25.365Z,24.10
2023-08-25T12:30:29.127Z,23.50
2023-08-25T12:31:32.012Z,23.90
2023-08-25T12:32:33.863Z,23.70
2023-08-25T12:33:37.115Z,23.20
2023-08-25T12:34:38.946Z,22.90
2023-08-25T12:35:41.856Z,22.70
2023-08-25T12:36:43.778Z,22.50
2023-08-25T12:37:47.993Z,22.30
2023-08-25T12:38:49.932Z,22.30
2023-08-25T12:39:52.730Z,22.10
2023-08-25T12:40:55.205Z,22.10
2023-08-25T12:41:58.072Z,22.00
2023-08-25T12:43:00.046Z,22.00
2023-08-25T12:44:03.338Z,22.00
2023-08-25T12:45:06.387Z,21.90
2023-08-25T12:46:09.459Z,21.90
2023-08-25T12:47:11.321Z,21.90
2023-08-25T12:48:13.647Z,21.90
2023-08-25T12:49:16.680Z,21.90
2023-08-25T12:50:18.808Z,21.80
2023-08-25T12:51:21.752Z,21.80
2023-08-25T12:52:24.840Z,21.70
2023-08-25T12:53:28.996Z,21.80
2023-08-25T12:54:30.825Z,21.70
2023-08-25T12:55:34.669Z,21.70
2023-08-25T12:56:36.573Z,21.80
2023-08-25T12:57:39.442Z,21.80
2023-08-25T12:58:41.313Z,21.90
2023-08-25T12:59:44.154Z,21.70
2023-08-25T13:00:46.104Z,21.80
2023-08-25T13:01:51.120Z,21.70
2023-08-25T13:02:54.306Z,21.70
2023-08-25T13:03:56.513Z,21.70
2023-08-25T13:04:59.462Z,21.70
2023-08-25T13:06:04.009Z,21.70
2023-08-25T13:07:07.013Z,21.70
2023-08-25T13:08:09.201Z,21.70
2023-08-25T13:09:13.344Z,21.60
2023-08-25T13:10:16.471Z,21.60
2023-08-25T13:11:19.525Z,21.60
2023-08-25T13:12:21.754Z,21.60
2023-08-25T13:13:24.722Z,21.70
2023-08-25T13:14:27.365Z,21.60
2023-08-25T13:15:32.061Z,21.60
2023-08-25T13:16:34.937Z,21.70
2023-08-25T13:17:37.823Z,21.60
2023-08-25T13:18:39.672Z,21.70
2023-08-25T13:19:42.519Z,21.60
2023-08-25T13:20:44.715Z,21.70
2023-08-25T13:21:48.085Z,21.70
2023-08-25T13:22:49.945Z,21.70
2023-08-25T13:24:07.568Z,21.70
2023-08-25T13:25:12.713Z,21.70
2023-08-25T13:26:15.954Z,21.70
2023-08-25T13:27:17.802Z,21.70
2023-08-25T13:28:20.606Z,21.70
2023-08-25T13:29:22.431Z,21.70
2023-08-25T13:30:25.394Z,21.70
2023-08-25T13:31:28.161Z,21.70
2023-08-25T13:32:31.115Z,21.70
2023-08-25T13:33:35.529Z,21.60
2023-08-25T13:34:40.667Z,21.60
2023-08-25T13:35:42.583Z,21.60
2023-08-25T13:36:45.436Z,21.60
2023-08-25T13:37:47.326Z,21.60
2023-08-25T13:38:50.119Z,21.60